Résultats

6.9KM - BAILLI SUFFREN. Édition 2015.

6.9 Km
22/11/2015 à 10:00:00 - Marseille (13)
167 arrivant(e)s.





Place▲ Temps Dossard Nom Prenom Categ #Categ Sexe #Sexe Club Vit Moy Diplôme Partager
1 00:24:27 644 LE-BORGNE NICOLAS SEM 1 M 1 CEF MARATHONIEN 16.93
2 00:24:55 554 MAGNAN SEBASTIEN M1M 1 M 2 ROUSSET TRIATHLON 16.62
3 00:25:06 638 MELIA JEAN-FRANCOIS M1M 2 M 3 TONY MARTINS RUNNER 16.49
4 00:25:23 604 TEISSIER REMI SEM 2 M 4 16.31
5 00:25:36 633 YETTEFTI ASSAINE M1M 3 M 5 TEAM TRAIL SALONAIS 16.17
6 00:25:53 637 DE-CHAVIGNY CHRISTOPHE M1M 4 M 6 COURIR A MEYREUIL 15.99
7 00:26:16 618 TESSARO PAUL SEM 3 M 7 AIX ATHLE PROVENCE 15.76
8 00:26:45 587 SAUVE MAXIME ESM 1 M 8 TEAM PROVENCE ENDURANCE 15.48
9 00:27:17 505 BENHAMOU MOUSSA M1M 5 M 9 15.17
10 00:27:22 564 MITELMAN BORIS M2M 1 M 10 15.13
11 00:27:34 660 KRIEG GUILLAUME SEM 4 M 11 15.02
12 00:27:34 646 LAWSON NICOLAS SEM 5 M 12 SALON TRIATHLON 15.02
13 00:27:35 595 BELMADI AHMED M3M 1 M 13 15.01
14 00:27:37 665 BAGARRY BENJAMIN CAM 1 M 14 S/L STADE MARSEILLAIS U. C. 14.99
15 00:28:16 666 SECCHI LAURENT SEM 6 M 15 14.65
16 00:28:27 647 BARBIER ROMAIN SEM 7 M 16 OLYMPIQUE CABRIES CALAS 14.55
17 00:28:36 544 KELEMENIS AXEL-VINCENT JUM 1 M 17 TONY MARTINS RUNNERS 14.48
18 00:28:52 512 BUISSON ANTHONY CAM 2 M 18 ST MARTIN ATHLETISME 14.34
19 00:28:56 630 COCCI JEAN-MARC M1M 6 M 19 APM 14.31
20 00:28:57 616 STAUNTON GERARD M3M 2 M 20 14.30
21 00:29:04 640 GEORGEON LISE SEF 1 F 1 AIX ATHLE PROVENCE 14.24
22 00:29:14 542 HEDOU FABRICE SEM 8 M 21 14.16
23 00:29:24 659 ELLUL FRANCK M1M 7 M 22 14.08
24 00:29:34 504 BENHAMOU IBRAHIM CAM 3 M 23 14.00
25 00:29:40 635 CHAVE CHRISTOPHE M1M 8 M 24 OLYMPIQUE CABRIES CALAS 13.96
26 00:29:46 568 MUIDEBLED SEBASTIEN M1M 9 M 25 13.91
27 00:30:08 631 COCCI LUCIEN CAM 4 M 26 APM 13.74
28 00:30:20 622 MEZZALIRA FABRICE M1M 10 M 27 ELAN LAMBESCAIN 13.65
29 00:30:23 658 DALIGAUD FABRICE M1M 11 M 28 FREHEL CAP 13.63
30 00:30:33 528 EL-ATRI ANIS SEM 9 M 29 13.55
31 00:30:33 632 CABRERA MAELYS SEF 2 F 2 ATHLETIC CLUB LANCONNAIS 13.55
32 00:30:39 601 JACQUIN ROMAIN SEM 10 M 30 13.51
33 00:30:42 627 MARTIN LUCAS M3M 3 M 31 EPM 13.49
34 00:30:48 650 DALIGAUD LUKAS BEM 1 M 32 TRIATHL'AIX 13.44
35 00:30:49 599 ESCORIHUELA PATRICE M1M 12 M 33 13.43
36 00:30:51 570 PASCUAL PHILIPPE M1M 13 M 34 13.42
37 00:31:28 506 BENSOT ALI M3M 4 M 35 A I L ROUSSET 13.16
38 00:31:42 614 ARQUIER CAROLE M2F 1 F 3 SPEEDY CLUB DE PROVENCE 13.06
39 00:32:16 532 GASTAUD AURELIE SEF 3 F 4 12.83
40 00:32:26 603 FANTINO CHRISTOPHER SEM 11 M 36 12.76
41 00:32:35 641 MANI MALIKA M1F 1 F 5 KMS 12.71
42 00:32:40 526 DESSEIN JOHAN M2M 2 M 37 ASM VIEUX PORC 12.67
43 00:33:07 582 ROMISCH LIONEL M1M 14 M 38 12.50
44 00:33:10 548 LAPINA MARIE-LAURE M1F 2 F 6 A NOUS LA VICTOIRE 12.48
45 00:33:19 516 CHAMPAULT CHRISTIAN M1M 15 M 39 AIX ATHLE PROVENCE 12.43
46 00:33:23 550 LAURENT ANNE-MARIE M1F 3 F 7 12.40
47 00:33:29 675 PRADELLES ALICE SEF 4 F 8 AIX ATHLE PROVENCE 12.36
48 00:33:32 555 MANSON MARCEL M3M 5 M 40 AIX ATHLE PROVENCE 12.35
49 00:33:34 668 DENET PHILIPPE M1M 16 M 41 12.33
50 00:33:46 674 NOIROT CAROLE SEF 5 F 9 AIX ATHLE PROVENCE 12.26
51 00:33:51 628 BRECHEMIER LUC M2M 3 M 42 12.23
52 00:33:53 575 PLOUCHARD HUGO CAM 5 M 43 SCO STE MARGUERITE 12.22
53 00:33:58 567 MORGAN RYAN ESM 2 M 44 12.19
54 00:34:09 615 PETIT CHRISTIAN M3M 6 M 45 AIX ATHLE PROVENCE 12.12
55 00:34:17 605 TEISSIER ERIKA SEF 6 F 10 12.08
56 00:34:24 518 CHAUVIN PAUL-EMILE SEM 12 M 46 12.03
57 00:34:28 571 PEREZ SALVADOR M1M 17 M 47 12.01
58 00:34:46 661 LAPIERRE PASCAL M2M 4 M 48 11.91
59 00:35:03 588 SMARAGDACHI LAURIE ESF 1 F 11 SAUCONY TONY MARTINS CPA 11.81
60 00:35:07 537 GONZALES CYRIL M1M 18 M 49 11.79
61 00:35:21 624 ONIER FRANCOISE M1F 4 F 12 AIX ATHLE PROVENCE 11.71
62 00:35:21 613 TRAMMA ROGER M3M 7 M 50 AIX ATHLE PROVENCE 11.71
63 00:35:37 656 BOUROT DAVID M1M 19 M 51 COURIR A MEYREUIL 11.62
64 00:35:40 667 AUDIC STEPHANE M1M 20 M 52 11.61
65 00:35:47 642 SILVAGNOLI LUCAS ESM 3 M 53 11.57
66 00:36:04 592 THOMASSIN NADINE M2F 2 F 13 11.48
67 00:36:08 533 GEORGEON BERNARD M3M 8 M 54 COURIR A MEYREUIL 11.46
68 00:36:09 655 VOLAND FREDERIC M4M 1 M 55 11.45
69 00:36:24 524 DE-MIANVILLE YVES M1M 21 M 56 11.37
70 00:36:41 586 RUBI STEPHANE M1M 22 M 57 LES FOULEES PELISSANNAISE 11.29
71 00:36:49 629 MIRABEL GILLES M3M 9 M 58 OLYMPIQUE CABRIES CALAS 11.24
72 00:37:05 584 ROUX LILIAN CAM 6 M 59 11.16
73 00:37:08 636 DE-MARC DANIELLE M3F 1 F 14 SPEEDY CLUB DE PROVENCE 11.15
74 00:37:12 552 LELONG NICOLAS SEM 13 M 60 11.13
75 00:37:18 543 JONCA VERONIQUE M2F 3 F 15 11.10
76 00:37:18 569 NOYER BERNARD M2M 5 M 61 11.10
77 00:37:26 573 PINEAU CECILE SEF 7 F 16 11.06
78 00:37:31 551 LEBELLEGARD THIBAUD SEM 14 M 62 SCO SAINTE MARGUERITE 11.04
79 00:38:13 527 DEWAVRIN RODY M3M 10 M 63 AIX ATHLE PROVENCE 10.83
80 00:38:14 639 SIRAND JEAN-VICTOR M4M 2 M 64 ELAN LAMBESCAIN 10.83
81 00:38:14 597 LENOIR STEPHANE SEF 8 F 17 10.83
82 00:38:14 520 CLERO-KELEMENIS LAURENCE M2F 4 F 18 TONY MARTINS RUNNERS 10.83
83 00:38:14 626 TOMAS JOSE M3M 11 M 65 10.83
84 00:38:48 645 ROCCHIA RENE M3M 12 M 66 CLES GARDANNE 10.67
85 00:39:01 539 GUERIN ERINEE M2F 5 F 19 CSPCG 13 10.61
86 00:39:02 519 CHOULI LUCIA SEF 9 F 20 10.61
87 00:39:20 566 MONVILLE ALAIN M2M 6 M 67 10.53
88 00:39:21 562 MERCURIO LAURENCE SEF 10 F 21 10.52
89 00:39:31 1151 FABRE ROMAIN JUM 2 M 68 TAUREAUX AILES CHARLEVAL 10.48
90 00:39:47 591 THOMASSIN ALAIN M3M 13 M 69 10.41
91 00:39:50 663 HERMANN MARJORIE SEF 11 F 22 10.39
92 00:40:03 649 NOAT CARRO SEF 12 F 23 10.34
93 00:40:10 503 BERNEJO PHILIPPE SEM 15 M 70 10.31
94 00:40:11 623 KHALED SANDRINE M1F 5 F 24 SPEEDY CLUB DE PROVENCE 10.30
95 00:40:12 673 SAIDANI-BORIE CLAIRE ESF 2 F 25 10.30
96 00:40:15 671 LACAZE MARION ESF 3 F 26 10.29
97 00:40:32 557 MARCEL STEPHANE SEM 16 M 71 ATHLETIC CLUB SALONNAIS 10.21
98 00:40:37 529 ELSENHEIMER SOPHIE M1F 6 F 27 10.19
99 00:40:37 612 ICARDI MICHEL M3M 14 M 72 LA FOULEE AURELIENNE AS TRETS 10.19
100 00:40:41 540 GUERIN MARC M3M 15 M 73 CSPCG 13 10.18